Kirzhach, Russia
Current Conditions -  °F | °C
As of 10:00 PM on Friday 24 Oct 2014 (Local Time) from UUEE Reporting Station
Clear Clear  
Wind Chill: 13°   Ceiling: Unl
Heat Index: 19°   Visibility: 6mi
Dew Point: 14°   Wind: 4mph
Humidity: 80%   Direction: NA
Pressure: 30.62"   Gusts: NA
Location:  56.17°N, 38.87°E
Report Text: UUEE 241900Z VRB02MPS CAVOK M07/M10 Q1037 07000062 57150151NOSIG
Loading
Personal Weather Stations






























Interactive Weather Map
Tropical Storm Tracking
New forecast layout! Learn more

10-Day Weather Forecast

Advertisements
Track Severe Weather on mobile